sensor_id;sensor_type;location;lat;lon;timestamp;temperature;humidity
34646;DHT22;20857;47.808;12.482;2022-07-21T00:01:52;23.60;99.90
34646;DHT22;20857;47.808;12.482;2022-07-21T00:04:18;23.60;99.90
34646;DHT22;20857;47.808;12.482;2022-07-21T00:06:45;23.50;99.90
34646;DHT22;20857;47.808;12.482;2022-07-21T00:09:12;23.50;99.90
34646;DHT22;20857;47.808;12.482;2022-07-21T00:11:38;23.50;99.90
34646;DHT22;20857;47.808;12.482;2022-07-21T00:14:05;23.50;99.90
34646;DHT22;20857;47.808;12.482;2022-07-21T00:16:31;23.40;99.90
34646;DHT22;20857;47.808;12.482;2022-07-21T00:18:57;23.40;99.90
34646;DHT22;20857;47.808;12.482;2022-07-21T00:21:25;23.20;99.90
34646;DHT22;20857;47.808;12.482;2022-07-21T00:23:50;23.20;99.90
34646;DHT22;20857;47.808;12.482;2022-07-21T00:26:16;23.10;99.90
34646;DHT22;20857;47.808;12.482;2022-07-21T00:28:44;23.00;99.90
34646;DHT22;20857;47.808;12.482;2022-07-21T00:31:10;23.00;99.90
34646;DHT22;20857;47.808;12.482;2022-07-21T00:33:35;23.00;99.90
34646;DHT22;20857;47.808;12.482;2022-07-21T00:36:01;22.90;99.90
34646;DHT22;20857;47.808;12.482;2022-07-21T00:38:27;22.90;99.90
34646;DHT22;20857;47.808;12.482;2022-07-21T00:40:53;22.80;99.90
34646;DHT22;20857;47.808;12.482;2022-07-21T00:43:19;22.70;99.90
34646;DHT22;20857;47.808;12.482;2022-07-21T00:45:45;22.60;99.90
34646;DHT22;20857;47.808;12.482;2022-07-21T00:48:11;22.50;99.90
34646;DHT22;20857;47.808;12.482;2022-07-21T00:50:36;22.40;99.90
34646;DHT22;20857;47.808;12.482;2022-07-21T00:53:02;22.30;99.90
34646;DHT22;20857;47.808;12.482;2022-07-21T00:55:28;22.30;99.90
34646;DHT22;20857;47.808;12.482;2022-07-21T00:57:54;22.30;99.90
34646;DHT22;20857;47.808;12.482;2022-07-21T01:00:25;22.20;99.90
34646;DHT22;20857;47.808;12.482;2022-07-21T01:02:52;22.10;99.90
34646;DHT22;20857;47.808;12.482;2022-07-21T01:05:18;22.10;99.90
34646;DHT22;20857;47.808;12.482;2022-07-21T01:07:55;22.10;99.90
34646;DHT22;20857;47.808;12.482;2022-07-21T01:10:23;22.10;99.90
34646;DHT22;20857;47.808;12.482;2022-07-21T01:12:49;22.10;99.90
34646;DHT22;20857;47.808;12.482;2022-07-21T01:15:17;22.00;99.90
34646;DHT22;20857;47.808;12.482;2022-07-21T01:17:43;22.10;99.90
34646;DHT22;20857;47.808;12.482;2022-07-21T01:20:15;22.00;99.90
34646;DHT22;20857;47.808;12.482;2022-07-21T01:22:44;21.90;99.90
34646;DHT22;20857;47.808;12.482;2022-07-21T01:25:11;21.90;99.90
34646;DHT22;20857;47.808;12.482;2022-07-21T01:27:37;21.80;99.90
34646;DHT22;20857;47.808;12.482;2022-07-21T01:30:06;21.80;99.90
34646;DHT22;20857;47.808;12.482;2022-07-21T01:32:34;21.80;99.90
34646;DHT22;20857;47.808;12.482;2022-07-21T01:35:00;21.80;99.90
34646;DHT22;20857;47.808;12.482;2022-07-21T01:37:28;21.70;99.90
34646;DHT22;20857;47.808;12.482;2022-07-21T01:39:54;21.70;99.90
34646;DHT22;20857;47.808;12.482;2022-07-21T01:42:38;21.60;99.90
34646;DHT22;20857;47.808;12.482;2022-07-21T01:45:04;21.50;99.90
34646;DHT22;20857;47.808;12.482;2022-07-21T01:47:31;21.50;99.90
34646;DHT22;20857;47.808;12.482;2022-07-21T01:52:39;21.40;99.90
34646;DHT22;20857;47.808;12.482;2022-07-21T01:55:04;21.40;99.90
34646;DHT22;20857;47.808;12.482;2022-07-21T01:57:30;21.40;99.90
34646;DHT22;20857;47.808;12.482;2022-07-21T01:59:56;21.40;99.90
34646;DHT22;20857;47.808;12.482;2022-07-21T02:02:22;21.30;99.90
34646;DHT22;20857;47.808;12.482;2022-07-21T02:04:48;21.30;99.90
34646;DHT22;20857;47.808;12.482;2022-07-21T02:07:14;21.20;99.90
34646;DHT22;20857;47.808;12.482;2022-07-21T02:09:40;21.20;99.90
34646;DHT22;20857;47.808;12.482;2022-07-21T02:12:06;21.20;99.90
34646;DHT22;20857;47.808;12.482;2022-07-21T02:14:31;21.20;99.90
34646;DHT22;20857;47.808;12.482;2022-07-21T02:16:57;21.20;99.90
34646;DHT22;20857;47.808;12.482;2022-07-21T02:19:23;21.20;99.90
34646;DHT22;20857;47.808;12.482;2022-07-21T02:21:49;21.00;99.90
34646;DHT22;20857;47.808;12.482;2022-07-21T02:24:15;20.90;99.90
34646;DHT22;20857;47.808;12.482;2022-07-21T02:26:41;20.80;99.90
34646;DHT22;20857;47.808;12.482;2022-07-21T02:29:06;20.80;99.90
34646;DHT22;20857;47.808;12.482;2022-07-21T02:34:07;20.70;99.90
34646;DHT22;20857;47.808;12.482;2022-07-21T02:36:33;20.80;99.90
34646;DHT22;20857;47.808;12.482;2022-07-21T02:38:59;20.80;99.90
34646;DHT22;20857;47.808;12.482;2022-07-21T02:41:24;20.70;99.90
34646;DHT22;20857;47.808;12.482;2022-07-21T02:43:50;20.70;99.90
34646;DHT22;20857;47.808;12.482;2022-07-21T02:46:16;20.70;99.90
34646;DHT22;20857;47.808;12.482;2022-07-21T02:48:41;20.70;99.90
34646;DHT22;20857;47.808;12.482;2022-07-21T02:51:07;20.60;99.90
34646;DHT22;20857;47.808;12.482;2022-07-21T02:53:33;20.60;99.90
34646;DHT22;20857;47.808;12.482;2022-07-21T02:55:58;20.50;99.90
34646;DHT22;20857;47.808;12.482;2022-07-21T02:58:26;20.30;99.90
34646;DHT22;20857;47.808;12.482;2022-07-21T03:01:00;20.30;99.90
34646;DHT22;20857;47.808;12.482;2022-07-21T03:03:29;20.30;99.90
34646;DHT22;20857;47.808;12.482;2022-07-21T03:05:55;20.20;99.90
34646;DHT22;20857;47.808;12.482;2022-07-21T03:08:23;20.20;99.90
34646;DHT22;20857;47.808;12.482;2022-07-21T03:10:49;20.20;99.90
34646;DHT22;20857;47.808;12.482;2022-07-21T03:13:15;20.10;99.90
34646;DHT22;20857;47.808;12.482;2022-07-21T03:15:41;20.00;99.90
34646;DHT22;20857;47.808;12.482;2022-07-21T03:18:07;19.80;99.90
34646;DHT22;20857;47.808;12.482;2022-07-21T03:20:36;19.60;99.90
34646;DHT22;20857;47.808;12.482;2022-07-21T03:23:03;19.60;99.90
34646;DHT22;20857;47.808;12.482;2022-07-21T03:25:29;19.50;99.90
34646;DHT22;20857;47.808;12.482;2022-07-21T03:27:55;19.60;99.90
34646;DHT22;20857;47.808;12.482;2022-07-21T03:30:21;19.60;99.90
34646;DHT22;20857;47.808;12.482;2022-07-21T03:32:50;19.70;99.90
34646;DHT22;20857;47.808;12.482;2022-07-21T03:35:16;19.60;99.90
34646;DHT22;20857;47.808;12.482;2022-07-21T03:37:47;19.50;99.90
34646;DHT22;20857;47.808;12.482;2022-07-21T03:40:15;19.50;99.90
34646;DHT22;20857;47.808;12.482;2022-07-21T03:42:41;19.50;99.90
34646;DHT22;20857;47.808;12.482;2022-07-21T03:45:08;19.50;99.90
34646;DHT22;20857;47.808;12.482;2022-07-21T03:47:35;19.50;99.90
34646;DHT22;20857;47.808;12.482;2022-07-21T03:50:00;19.50;99.90
34646;DHT22;20857;47.808;12.482;2022-07-21T03:52:26;19.50;99.90
34646;DHT22;20857;47.808;12.482;2022-07-21T03:54:52;19.50;99.90
34646;DHT22;20857;47.808;12.482;2022-07-21T03:57:37;19.50;99.90
34646;DHT22;20857;47.808;12.482;2022-07-21T04:00:09;19.50;99.90
34646;DHT22;20857;47.808;12.482;2022-07-21T04:02:35;19.50;99.90
34646;DHT22;20857;47.808;12.482;2022-07-21T04:05:02;19.50;99.90
34646;DHT22;20857;47.808;12.482;2022-07-21T04:07:28;19.40;99.90
34646;DHT22;20857;47.808;12.482;2022-07-21T04:09:54;19.50;99.90
34646;DHT22;20857;47.808;12.482;2022-07-21T04:12:19;19.50;99.90
34646;DHT22;20857;47.808;12.482;2022-07-21T04:14:45;19.50;99.90
34646;DHT22;20857;47.808;12.482;2022-07-21T04:17:11;19.60;99.90
34646;DHT22;20857;47.808;12.482;2022-07-21T04:19:36;19.60;99.90
34646;DHT22;20857;47.808;12.482;2022-07-21T04:22:02;19.60;99.90
34646;DHT22;20857;47.808;12.482;2022-07-21T04:24:27;19.60;99.90
34646;DHT22;20857;47.808;12.482;2022-07-21T04:26:53;19.70;99.90
34646;DHT22;20857;47.808;12.482;2022-07-21T04:29:19;19.80;99.90
34646;DHT22;20857;47.808;12.482;2022-07-21T04:31:44;19.90;99.90
34646;DHT22;20857;47.808;12.482;2022-07-21T04:34:10;20.00;99.90
34646;DHT22;20857;47.808;12.482;2022-07-21T04:36:35;20.20;99.90
34646;DHT22;20857;47.808;12.482;2022-07-21T04:39:01;20.40;99.90
34646;DHT22;20857;47.808;12.482;2022-07-21T04:41:27;20.50;99.90
34646;DHT22;20857;47.808;12.482;2022-07-21T04:43:52;20.60;99.90
34646;DHT22;20857;47.808;12.482;2022-07-21T04:46:21;20.80;99.90
34646;DHT22;20857;47.808;12.482;2022-07-21T04:48:47;20.90;99.90
34646;DHT22;20857;47.808;12.482;2022-07-21T04:54:28;21.30;99.90
34646;DHT22;20857;47.808;12.482;2022-07-21T04:56:54;21.00;99.90
34646;DHT22;20857;47.808;12.482;2022-07-21T04:59:21;20.90;99.90
34646;DHT22;20857;47.808;12.482;2022-07-21T05:01:49;20.90;99.90
34646;DHT22;20857;47.808;12.482;2022-07-21T05:04:15;20.80;99.90
34646;DHT22;20857;47.808;12.482;2022-07-21T05:06:40;20.80;99.90
34646;DHT22;20857;47.808;12.482;2022-07-21T05:09:06;20.90;99.90
34646;DHT22;20857;47.808;12.482;2022-07-21T05:11:33;21.00;99.90
34646;DHT22;20857;47.808;12.482;2022-07-21T05:13:58;21.20;99.90
34646;DHT22;20857;47.808;12.482;2022-07-21T05:16:24;21.40;99.90
34646;DHT22;20857;47.808;12.482;2022-07-21T05:18:50;21.70;99.90
34646;DHT22;20857;47.808;12.482;2022-07-21T05:21:15;22.00;99.90
34646;DHT22;20857;47.808;12.482;2022-07-21T05:23:41;22.20;99.90
34646;DHT22;20857;47.808;12.482;2022-07-21T05:26:07;22.40;99.90
34646;DHT22;20857;47.808;12.482;2022-07-21T05:28:33;22.60;99.90
34646;DHT22;20857;47.808;12.482;2022-07-21T05:30:59;22.70;99.90
34646;DHT22;20857;47.808;12.482;2022-07-21T05:33:25;22.80;99.90
34646;DHT22;20857;47.808;12.482;2022-07-21T05:35:51;22.80;99.90
34646;DHT22;20857;47.808;12.482;2022-07-21T05:38:17;22.70;99.90
34646;DHT22;20857;47.808;12.482;2022-07-21T05:40:42;22.80;99.90
34646;DHT22;20857;47.808;12.482;2022-07-21T05:43:08;22.80;99.90
34646;DHT22;20857;47.808;12.482;2022-07-21T05:45:34;22.90;99.90
34646;DHT22;20857;47.808;12.482;2022-07-21T05:47:59;22.90;99.90
34646;DHT22;20857;47.808;12.482;2022-07-21T05:50:25;23.00;99.90
34646;DHT22;20857;47.808;12.482;2022-07-21T05:52:51;23.10;99.90
34646;DHT22;20857;47.808;12.482;2022-07-21T05:55:16;23.10;99.90
34646;DHT22;20857;47.808;12.482;2022-07-21T05:57:42;23.30;99.90
34646;DHT22;20857;47.808;12.482;2022-07-21T06:00:08;23.50;99.90
34646;DHT22;20857;47.808;12.482;2022-07-21T06:02:34;23.50;99.90
34646;DHT22;20857;47.808;12.482;2022-07-21T06:05:00;23.50;99.90
34646;DHT22;20857;47.808;12.482;2022-07-21T06:07:26;23.60;99.90
34646;DHT22;20857;47.808;12.482;2022-07-21T06:09:52;23.60;99.90
34646;DHT22;20857;47.808;12.482;2022-07-21T06:12:18;23.90;99.90
34646;DHT22;20857;47.808;12.482;2022-07-21T06:14:43;23.70;99.90
34646;DHT22;20857;47.808;12.482;2022-07-21T06:17:09;23.30;99.90
34646;DHT22;20857;47.808;12.482;2022-07-21T06:19:35;23.20;99.90
34646;DHT22;20857;47.808;12.482;2022-07-21T06:22:00;23.00;99.90
34646;DHT22;20857;47.808;12.482;2022-07-21T06:24:28;22.90;99.90
34646;DHT22;20857;47.808;12.482;2022-07-21T06:26:54;22.90;99.90
34646;DHT22;20857;47.808;12.482;2022-07-21T06:29:22;22.90;99.90
34646;DHT22;20857;47.808;12.482;2022-07-21T06:34:23;23.20;99.90
34646;DHT22;20857;47.808;12.482;2022-07-21T06:36:48;23.40;99.90
34646;DHT22;20857;47.808;12.482;2022-07-21T06:39:14;23.60;99.90
34646;DHT22;20857;47.808;12.482;2022-07-21T06:41:40;23.90;99.90
34646;DHT22;20857;47.808;12.482;2022-07-21T06:44:06;24.10;99.90
34646;DHT22;20857;47.808;12.482;2022-07-21T06:46:32;24.30;99.90
34646;DHT22;20857;47.808;12.482;2022-07-21T06:48:58;24.30;99.90
34646;DHT22;20857;47.808;12.482;2022-07-21T06:51:24;24.00;99.90
34646;DHT22;20857;47.808;12.482;2022-07-21T06:53:49;23.90;99.90
34646;DHT22;20857;47.808;12.482;2022-07-21T06:56:17;24.00;99.90
34646;DHT22;20857;47.808;12.482;2022-07-21T06:58:43;24.00;99.90
34646;DHT22;20857;47.808;12.482;2022-07-21T07:01:08;23.90;99.90
34646;DHT22;20857;47.808;12.482;2022-07-21T07:03:35;24.00;99.90
34646;DHT22;20857;47.808;12.482;2022-07-21T07:06:01;24.00;99.90
34646;DHT22;20857;47.808;12.482;2022-07-21T07:08:26;24.00;99.90
34646;DHT22;20857;47.808;12.482;2022-07-21T07:10:52;23.70;99.90
34646;DHT22;20857;47.808;12.482;2022-07-21T07:13:18;23.50;99.90
34646;DHT22;20857;47.808;12.482;2022-07-21T07:15:44;23.40;99.90
34646;DHT22;20857;47.808;12.482;2022-07-21T07:18:10;23.40;99.90
34646;DHT22;20857;47.808;12.482;2022-07-21T07:20:36;23.40;99.90
34646;DHT22;20857;47.808;12.482;2022-07-21T07:23:02;23.50;99.90
34646;DHT22;20857;47.808;12.482;2022-07-21T07:25:28;23.60;99.90
34646;DHT22;20857;47.808;12.482;2022-07-21T07:27:54;23.60;99.90
34646;DHT22;20857;47.808;12.482;2022-07-21T07:30:22;23.60;99.90
34646;DHT22;20857;47.808;12.482;2022-07-21T07:32:47;23.50;99.90
34646;DHT22;20857;47.808;12.482;2022-07-21T07:35:14;23.30;99.90
34646;DHT22;20857;47.808;12.482;2022-07-21T07:37:42;23.20;99.90
34646;DHT22;20857;47.808;12.482;2022-07-21T07:40:13;23.20;99.90
34646;DHT22;20857;47.808;12.482;2022-07-21T07:42:39;23.30;99.90
34646;DHT22;20857;47.808;12.482;2022-07-21T07:45:06;23.50;99.90
34646;DHT22;20857;47.808;12.482;2022-07-21T07:47:33;23.50;99.90
34646;DHT22;20857;47.808;12.482;2022-07-21T07:49:59;23.50;99.90
34646;DHT22;20857;47.808;12.482;2022-07-21T07:52:25;23.60;99.90
34646;DHT22;20857;47.808;12.482;2022-07-21T07:54:51;23.40;99.90
34646;DHT22;20857;47.808;12.482;2022-07-21T07:57:16;23.60;99.90
34646;DHT22;20857;47.808;12.482;2022-07-21T07:59:42;23.70;99.90
34646;DHT22;20857;47.808;12.482;2022-07-21T08:02:08;23.50;99.90
34646;DHT22;20857;47.808;12.482;2022-07-21T08:04:34;23.20;99.90
34646;DHT22;20857;47.808;12.482;2022-07-21T08:07:01;23.20;99.90
34646;DHT22;20857;47.808;12.482;2022-07-21T08:09:27;23.30;99.90
34646;DHT22;20857;47.808;12.482;2022-07-21T08:11:53;23.30;99.90
34646;DHT22;20857;47.808;12.482;2022-07-21T08:14:19;23.00;99.90
34646;DHT22;20857;47.808;12.482;2022-07-21T08:16:44;22.90;99.90
34646;DHT22;20857;47.808;12.482;2022-07-21T08:19:11;23.00;99.90
34646;DHT22;20857;47.808;12.482;2022-07-21T08:21:37;23.20;99.90
34646;DHT22;20857;47.808;12.482;2022-07-21T08:24:04;23.30;99.90
34646;DHT22;20857;47.808;12.482;2022-07-21T08:26:30;23.30;99.90
34646;DHT22;20857;47.808;12.482;2022-07-21T08:28:57;23.30;99.90
34646;DHT22;20857;47.808;12.482;2022-07-21T08:31:23;23.10;99.90
34646;DHT22;20857;47.808;12.482;2022-07-21T08:33:50;23.00;99.90
34646;DHT22;20857;47.808;12.482;2022-07-21T08:36:16;23.00;99.90
34646;DHT22;20857;47.808;12.482;2022-07-21T08:38:42;22.70;99.90
34646;DHT22;20857;47.808;12.482;2022-07-21T08:41:07;22.60;99.90
34646;DHT22;20857;47.808;12.482;2022-07-21T08:43:34;22.40;99.90
34646;DHT22;20857;47.808;12.482;2022-07-21T08:46:00;22.40;99.90
34646;DHT22;20857;47.808;12.482;2022-07-21T08:48:27;22.30;99.90
34646;DHT22;20857;47.808;12.482;2022-07-21T08:50:55;22.40;99.90
34646;DHT22;20857;47.808;12.482;2022-07-21T08:53:21;22.50;99.90
34646;DHT22;20857;47.808;12.482;2022-07-21T08:55:46;22.60;99.90
34646;DHT22;20857;47.808;12.482;2022-07-21T08:58:13;22.70;99.90
34646;DHT22;20857;47.808;12.482;2022-07-21T09:00:41;22.50;99.90
34646;DHT22;20857;47.808;12.482;2022-07-21T09:03:22;22.40;99.90
34646;DHT22;20857;47.808;12.482;2022-07-21T09:08:38;22.30;99.90
34646;DHT22;20857;47.808;12.482;2022-07-21T09:11:18;22.40;99.90
34646;DHT22;20857;47.808;12.482;2022-07-21T09:13:47;22.50;99.90
34646;DHT22;20857;47.808;12.482;2022-07-21T09:16:35;22.70;99.90
34646;DHT22;20857;47.808;12.482;2022-07-21T09:19:02;23.10;99.90
34646;DHT22;20857;47.808;12.482;2022-07-21T09:21:28;23.20;99.90
34646;DHT22;20857;47.808;12.482;2022-07-21T09:24:14;23.60;99.90
34646;DHT22;20857;47.808;12.482;2022-07-21T09:29:53;23.90;99.90
34646;DHT22;20857;47.808;12.482;2022-07-21T09:32:27;24.10;99.90
34646;DHT22;20857;47.808;12.482;2022-07-21T09:37:27;24.10;99.90
34646;DHT22;20857;47.808;12.482;2022-07-21T09:40:02;24.00;99.90
34646;DHT22;20857;47.808;12.482;2022-07-21T09:42:40;23.90;99.90
34646;DHT22;20857;47.808;12.482;2022-07-21T09:45:11;23.60;99.90
34646;DHT22;20857;47.808;12.482;2022-07-21T09:47:39;23.50;99.90
34646;DHT22;20857;47.808;12.482;2022-07-21T09:50:07;23.40;99.90
34646;DHT22;20857;47.808;12.482;2022-07-21T09:52:35;23.30;99.90
34646;DHT22;20857;47.808;12.482;2022-07-21T09:55:11;23.40;99.90
34646;DHT22;20857;47.808;12.482;2022-07-21T09:57:37;23.50;99.90
34646;DHT22;20857;47.808;12.482;2022-07-21T10:00:06;23.60;99.90
34646;DHT22;20857;47.808;12.482;2022-07-21T10:02:33;23.70;99.90
34646;DHT22;20857;47.808;12.482;2022-07-21T10:05:16;24.00;99.90
34646;DHT22;20857;47.808;12.482;2022-07-21T10:07:45;24.20;99.90
34646;DHT22;20857;47.808;12.482;2022-07-21T10:10:12;24.10;99.90
34646;DHT22;20857;47.808;12.482;2022-07-21T10:12:38;23.80;99.90
34646;DHT22;20857;47.808;12.482;2022-07-21T10:15:05;24.20;99.90
34646;DHT22;20857;47.808;12.482;2022-07-21T10:17:31;24.30;99.90
34646;DHT22;20857;47.808;12.482;2022-07-21T10:25:14;25.10;99.90
34646;DHT22;20857;47.808;12.482;2022-07-21T10:28:19;24.70;99.90
34646;DHT22;20857;47.808;12.482;2022-07-21T10:30:52;25.00;99.90
34646;DHT22;20857;47.808;12.482;2022-07-21T10:36:04;25.60;99.90
34646;DHT22;20857;47.808;12.482;2022-07-21T10:38:32;25.80;99.90
34646;DHT22;20857;47.808;12.482;2022-07-21T10:41:00;25.90;99.90
34646;DHT22;20857;47.808;12.482;2022-07-21T10:45:52;25.50;99.90
34646;DHT22;20857;47.808;12.482;2022-07-21T10:51:13;25.10;99.90
34646;DHT22;20857;47.808;12.482;2022-07-21T10:53:40;25.00;99.90
34646;DHT22;20857;47.808;12.482;2022-07-21T10:56:06;25.40;99.90
34646;DHT22;20857;47.808;12.482;2022-07-21T10:58:39;25.50;99.90
34646;DHT22;20857;47.808;12.482;2022-07-21T11:03:42;26.30;99.90
34646;DHT22;20857;47.808;12.482;2022-07-21T11:06:19;26.70;99.90
34646;DHT22;20857;47.808;12.482;2022-07-21T11:08:52;27.00;99.90
34646;DHT22;20857;47.808;12.482;2022-07-21T11:25:04;25.90;99.90
34646;DHT22;20857;47.808;12.482;2022-07-21T11:27:36;25.80;99.90
34646;DHT22;20857;47.808;12.482;2022-07-21T11:30:07;25.90;99.90
34646;DHT22;20857;47.808;12.482;2022-07-21T11:32:34;26.10;99.90
34646;DHT22;20857;47.808;12.482;2022-07-21T11:35:02;25.40;99.90
34646;DHT22;20857;47.808;12.482;2022-07-21T11:37:40;25.50;99.90
34646;DHT22;20857;47.808;12.482;2022-07-21T11:42:38;25.60;99.90
34646;DHT22;20857;47.808;12.482;2022-07-21T11:45:05;25.30;99.90
34646;DHT22;20857;47.808;12.482;2022-07-21T11:47:32;25.40;99.90
34646;DHT22;20857;47.808;12.482;2022-07-21T11:50:00;25.30;99.90
34646;DHT22;20857;47.808;12.482;2022-07-21T11:52:28;24.80;99.90
34646;DHT22;20857;47.808;12.482;2022-07-21T11:54:55;24.60;99.90
34646;DHT22;20857;47.808;12.482;2022-07-21T11:57:22;24.60;99.90
34646;DHT22;20857;47.808;12.482;2022-07-21T11:59:49;24.40;99.90
34646;DHT22;20857;47.808;12.482;2022-07-21T12:02:22;24.70;99.90
34646;DHT22;20857;47.808;12.482;2022-07-21T12:04:53;24.90;99.90
34646;DHT22;20857;47.808;12.482;2022-07-21T12:07:31;24.80;99.90
34646;DHT22;20857;47.808;12.482;2022-07-21T12:10:00;24.60;99.90
34646;DHT22;20857;47.808;12.482;2022-07-21T12:15:18;24.60;99.90
34646;DHT22;20857;47.808;12.482;2022-07-21T12:17:45;25.00;99.90
34646;DHT22;20857;47.808;12.482;2022-07-21T12:20:12;25.00;99.90
34646;DHT22;20857;47.808;12.482;2022-07-21T12:22:39;24.80;99.90
34646;DHT22;20857;47.808;12.482;2022-07-21T12:25:06;24.50;99.90
34646;DHT22;20857;47.808;12.482;2022-07-21T12:27:36;24.10;99.90
34646;DHT22;20857;47.808;12.482;2022-07-21T12:30:09;23.80;99.90
34646;DHT22;20857;47.808;12.482;2022-07-21T12:32:43;23.40;99.90
34646;DHT22;20857;47.808;12.482;2022-07-21T12:35:20;23.10;99.90
34646;DHT22;20857;47.808;12.482;2022-07-21T12:40:34;23.00;99.90
34646;DHT22;20857;47.808;12.482;2022-07-21T12:43:26;22.80;99.90
34646;DHT22;20857;47.808;12.482;2022-07-21T12:51:05;22.80;99.90
34646;DHT22;20857;47.808;12.482;2022-07-21T12:53:33;22.70;99.90
34646;DHT22;20857;47.808;12.482;2022-07-21T12:55:59;22.50;99.90
34646;DHT22;20857;47.808;12.482;2022-07-21T12:58:25;22.30;99.90
34646;DHT22;20857;47.808;12.482;2022-07-21T13:00:51;22.00;99.90
34646;DHT22;20857;47.808;12.482;2022-07-21T13:03:17;21.80;99.90
34646;DHT22;20857;47.808;12.482;2022-07-21T13:05:42;21.60;99.90
34646;DHT22;20857;47.808;12.482;2022-07-21T13:08:08;21.60;99.90
34646;DHT22;20857;47.808;12.482;2022-07-21T13:10:33;21.60;99.90
34646;DHT22;20857;47.808;12.482;2022-07-21T13:12:59;21.60;99.90
34646;DHT22;20857;47.808;12.482;2022-07-21T13:15:26;21.70;99.90
34646;DHT22;20857;47.808;12.482;2022-07-21T13:17:51;21.60;99.90
34646;DHT22;20857;47.808;12.482;2022-07-21T13:20:17;21.60;99.90
34646;DHT22;20857;47.808;12.482;2022-07-21T13:22:43;21.50;99.90
34646;DHT22;20857;47.808;12.482;2022-07-21T13:25:10;21.50;99.90
34646;DHT22;20857;47.808;12.482;2022-07-21T13:27:36;21.50;99.90
34646;DHT22;20857;47.808;12.482;2022-07-21T13:30:06;21.30;99.90
34646;DHT22;20857;47.808;12.482;2022-07-21T13:32:33;21.30;99.90
34646;DHT22;20857;47.808;12.482;2022-07-21T13:34:59;21.30;99.90
34646;DHT22;20857;47.808;12.482;2022-07-21T13:37:25;21.30;99.90
34646;DHT22;20857;47.808;12.482;2022-07-21T13:39:50;21.40;99.90
34646;DHT22;20857;47.808;12.482;2022-07-21T13:42:16;21.50;99.90
34646;DHT22;20857;47.808;12.482;2022-07-21T13:44:42;21.50;99.90
34646;DHT22;20857;47.808;12.482;2022-07-21T13:47:07;21.50;99.90
34646;DHT22;20857;47.808;12.482;2022-07-21T13:49:33;21.60;99.90
34646;DHT22;20857;47.808;12.482;2022-07-21T13:51:59;21.70;99.90
34646;DHT22;20857;47.808;12.482;2022-07-21T13:54:25;21.60;99.90
34646;DHT22;20857;47.808;12.482;2022-07-21T13:56:50;21.60;99.90
34646;DHT22;20857;47.808;12.482;2022-07-21T13:59:16;21.50;99.90
34646;DHT22;20857;47.808;12.482;2022-07-21T14:01:43;21.40;99.90
34646;DHT22;20857;47.808;12.482;2022-07-21T14:04:09;21.30;99.90
34646;DHT22;20857;47.808;12.482;2022-07-21T14:06:35;21.20;99.90
34646;DHT22;20857;47.808;12.482;2022-07-21T14:09:00;21.10;99.90
34646;DHT22;20857;47.808;12.482;2022-07-21T14:11:26;21.10;99.90
34646;DHT22;20857;47.808;12.482;2022-07-21T14:13:54;21.20;99.90
34646;DHT22;20857;47.808;12.482;2022-07-21T14:19:04;23.00;99.90
34646;DHT22;20857;47.808;12.482;2022-07-21T14:21:29;21.50;99.90
34646;DHT22;20857;47.808;12.482;2022-07-21T14:23:55;21.40;99.90
34646;DHT22;20857;47.808;12.482;2022-07-21T14:26:39;21.40;99.90
34646;DHT22;20857;47.808;12.482;2022-07-21T14:29:05;21.30;99.90
34646;DHT22;20857;47.808;12.482;2022-07-21T14:31:31;21.20;99.90
34646;DHT22;20857;47.808;12.482;2022-07-21T14:33:57;21.10;99.90
34646;DHT22;20857;47.808;12.482;2022-07-21T14:36:22;20.90;99.90
34646;DHT22;20857;47.808;12.482;2022-07-21T14:38:48;20.90;99.90
34646;DHT22;20857;47.808;12.482;2022-07-21T14:41:14;21.00;99.90
34646;DHT22;20857;47.808;12.482;2022-07-21T14:43:40;20.90;99.90
34646;DHT22;20857;47.808;12.482;2022-07-21T14:46:06;21.00;99.90
34646;DHT22;20857;47.808;12.482;2022-07-21T14:48:32;21.10;99.90
34646;DHT22;20857;47.808;12.482;2022-07-21T14:50:57;21.00;99.90
34646;DHT22;20857;47.808;12.482;2022-07-21T14:53:23;21.00;99.90
34646;DHT22;20857;47.808;12.482;2022-07-21T14:55:49;21.10;99.90
34646;DHT22;20857;47.808;12.482;2022-07-21T14:58:15;21.10;99.90
34646;DHT22;20857;47.808;12.482;2022-07-21T15:00:40;21.10;99.90
34646;DHT22;20857;47.808;12.482;2022-07-21T15:03:07;21.20;99.90
34646;DHT22;20857;47.808;12.482;2022-07-21T15:05:33;21.30;99.90
34646;DHT22;20857;47.808;12.482;2022-07-21T15:07:58;21.30;99.90
34646;DHT22;20857;47.808;12.482;2022-07-21T15:10:24;21.40;99.90
34646;DHT22;20857;47.808;12.482;2022-07-21T15:12:50;21.40;99.90
34646;DHT22;20857;47.808;12.482;2022-07-21T15:15:16;21.40;99.90
34646;DHT22;20857;47.808;12.482;2022-07-21T15:17:41;21.40;99.90
34646;DHT22;20857;47.808;12.482;2022-07-21T15:20:08;21.40;99.90
34646;DHT22;20857;47.808;12.482;2022-07-21T15:22:34;21.40;99.90
34646;DHT22;20857;47.808;12.482;2022-07-21T15:25:00;21.40;99.90
34646;DHT22;20857;47.808;12.482;2022-07-21T15:27:27;21.40;99.90
34646;DHT22;20857;47.808;12.482;2022-07-21T15:29:53;21.50;99.90
34646;DHT22;20857;47.808;12.482;2022-07-21T15:32:18;21.50;99.90
34646;DHT22;20857;47.808;12.482;2022-07-21T15:34:44;21.50;99.90
34646;DHT22;20857;47.808;12.482;2022-07-21T15:37:10;21.50;99.90
34646;DHT22;20857;47.808;12.482;2022-07-21T15:39:37;21.50;99.90
34646;DHT22;20857;47.808;12.482;2022-07-21T15:42:06;21.60;99.90
34646;DHT22;20857;47.808;12.482;2022-07-21T15:44:32;21.50;99.90
34646;DHT22;20857;47.808;12.482;2022-07-21T15:46:58;21.50;99.90
34646;DHT22;20857;47.808;12.482;2022-07-21T15:49:24;21.50;99.90
34646;DHT22;20857;47.808;12.482;2022-07-21T15:51:49;21.40;99.90
34646;DHT22;20857;47.808;12.482;2022-07-21T15:54:15;21.50;99.90
34646;DHT22;20857;47.808;12.482;2022-07-21T15:56:41;21.50;99.90
34646;DHT22;20857;47.808;12.482;2022-07-21T15:59:06;21.40;99.90
34646;DHT22;20857;47.808;12.482;2022-07-21T16:01:50;21.40;99.90
34646;DHT22;20857;47.808;12.482;2022-07-21T16:04:16;21.50;99.90
34646;DHT22;20857;47.808;12.482;2022-07-21T16:06:42;21.50;99.90
34646;DHT22;20857;47.808;12.482;2022-07-21T16:09:08;21.50;99.90
34646;DHT22;20857;47.808;12.482;2022-07-21T16:11:33;21.60;99.90
34646;DHT22;20857;47.808;12.482;2022-07-21T16:13:59;21.60;99.90
34646;DHT22;20857;47.808;12.482;2022-07-21T16:16:25;21.80;99.90
34646;DHT22;20857;47.808;12.482;2022-07-21T16:18:50;21.90;99.90
34646;DHT22;20857;47.808;12.482;2022-07-21T16:21:16;22.00;99.90